首页
METAR-TAF:

METAR-TAF

机场 :

士乃国际机场

新山, 马来西亚

纬度: 01-38N, 经度: 103-40E, 海拔: 37米

当前天气观测

该预报发布于48分钟前的02:00 UTC
风速4节,风向南转西南,在南转南东西之间变化
温度 25°C
湿度 94%
气压 1012 hPa
能见度10公里或以上
少量云层高于1800英尺

METAR: WMKJ 220200Z 21004KT 150V280 9999 FEW018 25/24 Q1012

时间: 10:48 (02:48 UTC)

预报

该预报发布于3小时和48分钟前的23:00 UTC
预报有效从22日的 00点(UTC)到 23日的 00点(UTC)
风速3节,风向多变
能见度10公里或以上
少量云层高于1000英尺
短暂存在
从 22日的 00点(UTC)到 22日的 04点(UTC)
能見度: 5000
少量云层高于1700英尺, 积雨云.
散云层高于1800英尺
雷暴, 小雨,

TAF: WMKJ 212300Z 2200/2300 VRB03KT 9999 FEW010 TEMPO 2200/2204 5000 -TSRA FEW017CB SCT018

超过4000个机场的气象观测和天气预报(METAR&TAF报告)。

可查询的气象台以黄色和红色小点在地图上表示。

将鼠标移到小点上方,可查看气象台名称。

然后点击查看天气观测和预报。

如需切换地图:点击带黑十字的绿色按钮放大地图;点击带横线的绿色按钮缩小地图;或者点击绿色箭头查看邻近地区的地图。


METAR-TAF: